createdAt,value
2016-07-18T00:02:35.401Z,16.7
2016-07-18T00:05:48.621Z,16.7
2016-07-18T00:09:02.067Z,16.7
2016-07-18T00:12:15.794Z,16.7
2016-07-18T00:15:28.986Z,16.7
2016-07-18T00:18:42.465Z,16.6
2016-07-18T00:22:00.876Z,16.6
2016-07-18T00:25:04.655Z,16.6
2016-07-18T00:28:18.170Z,16.5
2016-07-18T00:31:31.728Z,16.5
2016-07-18T00:34:45.195Z,16.4
2016-07-18T00:38:03.792Z,16.4
2016-07-18T00:41:07.484Z,16.4
2016-07-18T00:44:21.229Z,16.4
2016-07-18T00:47:34.904Z,16.4
2016-07-18T00:50:48.157Z,16.4
2016-07-18T00:54:06.578Z,16.4
2016-07-18T00:57:10.567Z,16.3
2016-07-18T01:00:24.163Z,16.3
2016-07-18T01:03:37.766Z,16.3
2016-07-18T01:06:51.408Z,16.3
2016-07-18T01:10:04.439Z,16.3
2016-07-18T01:13:17.980Z,16.3
2016-07-18T01:16:31.298Z,16.3
2016-07-18T01:19:44.936Z,16.3
2016-07-18T01:23:03.483Z,16.3
2016-07-18T01:26:07.171Z,16.3
2016-07-18T01:29:20.441Z,16.3
2016-07-18T01:32:34.038Z,16.3
2016-07-18T01:35:47.266Z,16.2
2016-07-18T01:39:05.925Z,16.2
2016-07-18T01:42:09.665Z,16.2
2016-07-18T01:45:23.109Z,16.2
2016-07-18T01:48:36.668Z,16.2
2016-07-18T01:51:50.295Z,16.2
2016-07-18T01:55:03.683Z,16.2
2016-07-18T01:58:17.139Z,16.2
2016-07-18T02:01:30.644Z,16.2
2016-07-18T02:04:43.867Z,16.2
2016-07-18T02:08:02.476Z,16.2
2016-07-18T02:11:06.264Z,16.1
2016-07-18T02:14:19.838Z,16.1
2016-07-18T02:17:33.363Z,16.1
2016-07-18T02:20:46.889Z,16
2016-07-18T02:24:05.410Z,16
2016-07-18T02:27:09.061Z,15.9
2016-07-18T02:30:22.177Z,15.9
2016-07-18T02:33:35.812Z,15.9
2016-07-18T02:36:49.349Z,15.8
2016-07-18T02:40:02.908Z,15.8
2016-07-18T02:43:16.445Z,15.8
2016-07-18T02:46:30.061Z,15.8
2016-07-18T02:49:43.574Z,15.7
2016-07-18T02:53:01.977Z,15.7
2016-07-18T02:56:05.623Z,15.7
2016-07-18T02:59:18.982Z,15.7
2016-07-18T03:02:30.268Z,15.6
2016-07-18T03:05:45.920Z,15.6
2016-07-18T03:09:04.441Z,15.6
2016-07-18T03:12:08.070Z,15.6
2016-07-18T03:15:20.922Z,15.6
2016-07-18T03:18:33.763Z,15.5
2016-07-18T03:21:47.098Z,15.5
2016-07-18T03:25:05.236Z,15.5
2016-07-18T03:28:08.820Z,15.4
2016-07-18T03:31:22.229Z,15.4
2016-07-18T03:34:35.577Z,15.4
2016-07-18T03:37:48.821Z,15.3
2016-07-18T03:41:02.345Z,15.3
2016-07-18T03:44:15.907Z,15.3
2016-07-18T03:47:29.562Z,15.3
2016-07-18T03:50:43.068Z,15.2
2016-07-18T03:54:01.530Z,15.3
2016-07-18T03:57:05.201Z,15.3
2016-07-18T04:00:18.334Z,15.3
2016-07-18T04:03:31.449Z,15.3
2016-07-18T04:06:44.943Z,15.3
2016-07-18T04:10:03.444Z,15.3
2016-07-18T04:13:07.095Z,15.3
2016-07-18T04:16:20.319Z,15.3
2016-07-18T04:19:33.869Z,15.3
2016-07-18T04:22:45.532Z,15.3
2016-07-18T04:26:05.846Z,15.3
2016-07-18T04:29:09.523Z,15.3
2016-07-18T04:32:21.406Z,15.3
2016-07-18T04:35:34.778Z,15.3
2016-07-18T04:38:48.390Z,15.3
2016-07-18T04:42:06.995Z,15.3
2016-07-18T04:45:10.802Z,15.2
2016-07-18T04:48:24.333Z,15.2
2016-07-18T04:51:37.944Z,15.2
2016-07-18T04:54:51.453Z,15.2
2016-07-18T04:58:04.419Z,15.1
2016-07-18T05:01:17.697Z,15.1
2016-07-18T05:04:31.241Z,15.1
2016-07-18T05:07:44.734Z,15.1
2016-07-18T05:11:02.294Z,15.1
2016-07-18T05:14:06.933Z,15
2016-07-18T05:17:20.397Z,15
2016-07-18T05:20:33.762Z,15.1
2016-07-18T05:23:46.934Z,15.1
2016-07-18T05:27:05.506Z,15.1
2016-07-18T05:30:09.284Z,15.1
2016-07-18T05:33:22.774Z,15.1
2016-07-18T05:36:36.273Z,15.1
2016-07-18T05:39:49.835Z,15.1
2016-07-18T05:43:03.032Z,15.1
2016-07-18T05:46:16.410Z,15.1
2016-07-18T05:49:29.793Z,15.1
2016-07-18T05:52:43.334Z,15
2016-07-18T05:56:01.873Z,15
2016-07-18T05:59:05.575Z,15
2016-07-18T06:02:19.137Z,15
2016-07-18T06:05:32.564Z,15.1
2016-07-18T06:08:46.149Z,15.1
2016-07-18T06:12:02.857Z,15.1
2016-07-18T06:15:06.411Z,15.1
2016-07-18T06:18:19.888Z,15.1
2016-07-18T06:21:33.397Z,15
2016-07-18T06:24:47.169Z,15
2016-07-18T06:28:05.669Z,15
2016-07-18T06:31:09.405Z,15
2016-07-18T06:34:22.829Z,15.1
2016-07-18T06:37:36.258Z,15.1
2016-07-18T06:40:49.737Z,15.1
2016-07-18T06:44:03.130Z,15.1
2016-07-18T06:47:13.423Z,15.2
2016-07-18T06:50:27.013Z,15.3
2016-07-18T06:53:40.659Z,15.4
2016-07-18T06:56:59.413Z,15.5
2016-07-18T07:00:03.336Z,15.6
2016-07-18T07:03:16.914Z,15.8
2016-07-18T07:06:30.541Z,15.8
2016-07-18T07:09:44.239Z,15.9
2016-07-18T07:13:02.935Z,15.9
2016-07-18T07:16:06.880Z,16
2016-07-18T07:19:20.556Z,16
2016-07-18T07:22:33.937Z,16.1
2016-07-18T07:25:45.830Z,16.1
2016-07-18T07:29:06.326Z,16.1
2016-07-18T07:32:10.001Z,16.3
2016-07-18T07:35:21.544Z,16.5
2016-07-18T07:38:37.301Z,16.6
2016-07-18T07:41:50.933Z,16.8
2016-07-18T07:45:04.545Z,17
2016-07-18T07:48:18.186Z,17.1
2016-07-18T07:51:31.877Z,17.1
2016-07-18T07:54:43.741Z,17
2016-07-18T07:57:59.819Z,16.9
2016-07-18T08:01:01.676Z,16.8
2016-07-18T08:04:17.059Z,16.5
2016-07-18T08:07:30.489Z,16.5
2016-07-18T08:10:44.028Z,16.6
2016-07-18T08:14:02.451Z,16.6
2016-07-18T08:17:06.291Z,16.6
2016-07-18T08:20:19.846Z,16.5
2016-07-18T08:23:33.578Z,16.4
2016-07-18T08:26:47.217Z,16.4
2016-07-18T08:30:05.749Z,16.4
2016-07-18T08:33:09.571Z,16.3
2016-07-18T08:36:23.207Z,16.2
2016-07-18T08:39:36.747Z,16.1
2016-07-18T08:42:50.311Z,16.1
2016-07-18T08:46:06.924Z,16
2016-07-18T08:49:10.921Z,16
2016-07-18T08:52:21.378Z,15.9
2016-07-18T08:55:32.833Z,15.8
2016-07-18T08:58:48.432Z,15.8
2016-07-18T09:02:07.077Z,15.7
2016-07-18T09:05:10.917Z,15.8
2016-07-18T09:08:24.481Z,16
2016-07-18T09:11:38.179Z,16.1
2016-07-18T09:14:51.821Z,16.2
2016-07-18T09:18:05.103Z,16.2
2016-07-18T09:21:18.604Z,16.2
2016-07-18T09:24:32.166Z,16.1
2016-07-18T09:27:45.718Z,15.9
2016-07-18T09:31:04.210Z,15.8
2016-07-18T09:34:07.866Z,15.8
2016-07-18T09:37:21.035Z,15.8
2016-07-18T09:40:34.030Z,15.8
2016-07-18T09:43:46.686Z,15.8
2016-07-18T09:47:04.672Z,15.8
2016-07-18T09:50:08.360Z,15.7
2016-07-18T09:53:21.819Z,15.7
2016-07-18T09:56:33.478Z,15.7
2016-07-18T09:59:46.803Z,15.8
2016-07-18T10:03:04.832Z,15.8
2016-07-18T10:06:08.767Z,16.1
2016-07-18T10:09:22.344Z,16.3
2016-07-18T10:12:35.725Z,16.3
2016-07-18T10:15:49.345Z,16.4
2016-07-18T10:19:02.965Z,16.3
2016-07-18T10:22:16.544Z,16.3
2016-07-18T10:25:30.090Z,16.2
2016-07-18T10:28:43.538Z,16.3
2016-07-18T10:32:02.156Z,16.3
2016-07-18T10:35:05.864Z,16.4
2016-07-18T10:38:19.354Z,16.7
2016-07-18T10:41:32.772Z,17.1
2016-07-18T10:44:46.572Z,17.3
2016-07-18T10:48:05.395Z,17.3
2016-07-18T10:51:09.240Z,17.1
2016-07-18T10:54:23.012Z,16.9
2016-07-18T10:57:36.643Z,16.9
2016-07-18T11:00:50.423Z,16.9
2016-07-18T11:04:04.163Z,16.9
2016-07-18T11:07:17.418Z,16.9
2016-07-18T11:10:31.085Z,16.9
2016-07-18T11:13:44.785Z,17
2016-07-18T11:17:03.610Z,17.2
2016-07-18T11:20:07.502Z,17.4
2016-07-18T11:23:21.345Z,17.5
2016-07-18T11:26:35.089Z,17.5
2016-07-18T11:29:47.425Z,17.6
2016-07-18T11:33:06.033Z,17.6
2016-07-18T11:36:10.165Z,17.7
2016-07-18T11:39:21.783Z,17.7
2016-07-18T11:42:37.225Z,17.7
2016-07-18T11:45:50.717Z,17.7
2016-07-18T11:49:04.170Z,17.7
2016-07-18T11:52:17.880Z,17.6
2016-07-18T11:55:31.340Z,17.5
2016-07-18T11:58:45.151Z,17.5
2016-07-18T12:02:02.397Z,17.3
2016-07-18T12:05:06.167Z,17.3
2016-07-18T12:08:19.911Z,17.2
2016-07-18T12:11:33.857Z,17.2
2016-07-18T12:14:47.485Z,17.3
2016-07-18T12:18:06.097Z,17.4
2016-07-18T12:21:10.001Z,17.5
2016-07-18T12:24:23.585Z,17.5
2016-07-18T12:27:37.077Z,17.6
2016-07-18T12:30:48.359Z,17.6
2016-07-18T12:34:01.823Z,17.6
2016-07-18T12:37:17.727Z,17.7
2016-07-18T12:40:31.511Z,17.7
2016-07-18T12:43:45.413Z,17.7
2016-07-18T12:47:04.154Z,17.8
2016-07-18T12:50:08.122Z,17.9
2016-07-18T12:53:21.630Z,18
2016-07-18T12:56:39.466Z,18.2
2016-07-18T12:59:48.896Z,18.2
2016-07-18T13:03:07.591Z,18.3
2016-07-18T13:06:11.727Z,18.3
2016-07-18T13:09:25.414Z,18.3
2016-07-18T13:12:39.061Z,18.2
2016-07-18T13:15:52.555Z,18.1
2016-07-18T13:19:06.197Z,18.1
2016-07-18T13:22:19.560Z,18.1
2016-07-18T13:25:31.386Z,18.1
2016-07-18T13:28:47.094Z,18
2016-07-18T13:32:05.993Z,18
2016-07-18T13:35:09.923Z,17.9
2016-07-18T13:38:23.516Z,17.9
2016-07-18T13:41:37.296Z,17.9
2016-07-18T13:44:50.951Z,17.9
2016-07-18T13:48:04.519Z,18
2016-07-18T13:51:16.884Z,18.1
2016-07-18T13:54:30.613Z,18.1
2016-07-18T13:57:44.215Z,18.1
2016-07-18T14:01:02.831Z,18.1
2016-07-18T14:04:06.796Z,18.1
2016-07-18T14:07:20.366Z,18.1
2016-07-18T14:10:33.902Z,18
2016-07-18T14:13:47.487Z,18
2016-07-18T14:17:06.011Z,17.9
2016-07-18T14:20:09.906Z,17.9
2016-07-18T14:23:23.763Z,17.8
2016-07-18T14:26:37.449Z,17.8
2016-07-18T14:29:49.364Z,17.8
2016-07-18T14:33:04.861Z,17.9
2016-07-18T14:36:22.611Z,17.9
2016-07-18T14:39:32.213Z,18
2016-07-18T14:42:45.797Z,18
2016-07-18T14:46:04.373Z,18
2016-07-18T14:49:08.258Z,17.9
2016-07-18T14:52:22.009Z,17.9
2016-07-18T14:55:35.533Z,17.9
2016-07-18T14:58:49.227Z,17.9
2016-07-18T15:02:07.545Z,18
2016-07-18T15:05:11.574Z,18
2016-07-18T15:08:25.193Z,18
2016-07-18T15:11:38.936Z,18
2016-07-18T15:14:52.759Z,17.9
2016-07-18T15:18:06.389Z,17.9
2016-07-18T15:21:20.203Z,17.9
2016-07-18T15:24:33.783Z,17.9
2016-07-18T15:27:47.349Z,17.9
2016-07-18T15:31:05.932Z,17.9
2016-07-18T15:34:07.951Z,18
2016-07-18T15:37:23.727Z,17.9
2016-07-18T15:40:37.059Z,18
2016-07-18T15:43:50.813Z,18
2016-07-18T15:47:04.530Z,18
2016-07-18T15:50:18.218Z,18
2016-07-18T15:53:31.573Z,18
2016-07-18T15:56:45.006Z,18
2016-07-18T16:00:03.604Z,18
2016-07-18T16:03:07.657Z,18
2016-07-18T16:06:20.941Z,18
2016-07-18T16:09:34.745Z,18
2016-07-18T16:12:48.366Z,18
2016-07-18T16:16:07.083Z,18
2016-07-18T16:19:11.168Z,18.1
2016-07-18T16:22:24.851Z,18.1
2016-07-18T16:25:38.591Z,18.1
2016-07-18T16:28:52.355Z,18.1
2016-07-18T16:32:05.855Z,18.1
2016-07-18T16:35:19.609Z,18.1
2016-07-18T16:38:31.457Z,18.2
2016-07-18T16:41:47.353Z,18.2
2016-07-18T16:45:03.613Z,18.2
2016-07-18T16:48:07.637Z,18.3
2016-07-18T16:51:21.055Z,18.3
2016-07-18T16:54:34.843Z,18.3
2016-07-18T16:57:48.565Z,18.3
2016-07-18T17:01:07.290Z,18.3
2016-07-18T17:04:11.309Z,18.3
2016-07-18T17:07:24.981Z,18.3
2016-07-18T17:10:38.875Z,18.3
2016-07-18T17:13:52.649Z,18.3
2016-07-18T17:17:06.489Z,18.3
2016-07-18T17:20:20.038Z,18.3
2016-07-18T17:23:33.845Z,18.3
2016-07-18T17:26:47.274Z,18.3
2016-07-18T17:30:05.903Z,18.2
2016-07-18T17:33:09.959Z,18.2
2016-07-18T17:36:23.825Z,18.1
2016-07-18T17:39:37.226Z,18.1
2016-07-18T17:42:51.027Z,18
2016-07-18T17:46:04.819Z,18
2016-07-18T17:49:18.391Z,18
2016-07-18T17:52:32.213Z,18
2016-07-18T17:55:45.947Z,18
2016-07-18T17:59:02.201Z,18
2016-07-18T18:02:06.132Z,18
2016-07-18T18:05:19.897Z,18
2016-07-18T18:08:33.626Z,18
2016-07-18T18:11:47.267Z,18
2016-07-18T18:15:06.028Z,18
2016-07-18T18:18:10.079Z,18
2016-07-18T18:21:23.165Z,18
2016-07-18T18:24:36.953Z,18
2016-07-18T18:27:50.577Z,18
2016-07-18T18:31:04.191Z,18
2016-07-18T18:34:18.033Z,17.9
2016-07-18T18:37:31.527Z,17.9
2016-07-18T18:40:45.229Z,17.9
2016-07-18T18:44:04.049Z,17.9
2016-07-18T18:47:07.934Z,17.9
2016-07-18T18:50:21.868Z,17.8
2016-07-18T18:53:34.752Z,17.8
2016-07-18T18:56:48.398Z,17.8
2016-07-18T19:00:04.381Z,17.8
2016-07-18T19:03:08.214Z,17.8
2016-07-18T19:06:21.930Z,17.7
2016-07-18T19:09:35.663Z,17.7
2016-07-18T19:12:49.255Z,17.7
2016-07-18T19:16:02.973Z,17.7
2016-07-18T19:19:12.996Z,17.7
2016-07-18T19:22:26.401Z,17.6
2016-07-18T19:25:41.907Z,17.7
2016-07-18T19:29:00.548Z,17.7
2016-07-18T19:32:04.320Z,17.7
2016-07-18T19:35:21.916Z,17.7
2016-07-18T19:38:31.116Z,17.7
2016-07-18T19:41:44.646Z,17.7
2016-07-18T19:45:03.247Z,17.6
2016-07-18T19:48:07.091Z,17.6
2016-07-18T19:51:20.741Z,17.6
2016-07-18T19:54:34.373Z,17.6
2016-07-18T19:57:47.879Z,17.6
2016-07-18T20:01:06.603Z,17.5
2016-07-18T20:04:10.477Z,17.5
2016-07-18T20:07:24.230Z,17.5
2016-07-18T20:10:37.823Z,17.5
2016-07-18T20:13:51.484Z,17.5
2016-07-18T20:17:04.706Z,17.4
2016-07-18T20:20:18.346Z,17.2
2016-07-18T20:23:31.648Z,17.1
2016-07-18T20:26:45.195Z,17
2016-07-18T20:30:03.770Z,16.9
2016-07-18T20:33:05.689Z,16.8
2016-07-18T20:36:21.245Z,16.8
2016-07-18T20:39:34.946Z,16.7
2016-07-18T20:42:48.484Z,16.7
2016-07-18T20:46:07.239Z,16.6
2016-07-18T20:49:11.098Z,16.5
2016-07-18T20:52:24.380Z,16.4
2016-07-18T20:55:38.034Z,16.4
2016-07-18T20:58:51.386Z,16.3
2016-07-18T21:02:02.835Z,16.3
2016-07-18T21:05:17.903Z,16.3
2016-07-18T21:08:31.478Z,16.2
2016-07-18T21:11:45.033Z,16.2
2016-07-18T21:15:03.289Z,16.2
2016-07-18T21:18:07.049Z,16.2
2016-07-18T21:21:20.397Z,16.2
2016-07-18T21:24:33.592Z,16.1
2016-07-18T21:27:47.144Z,16.1
2016-07-18T21:31:05.707Z,16
2016-07-18T21:34:09.487Z,16
2016-07-18T21:37:23.032Z,16.1
2016-07-18T21:40:36.448Z,16
2016-07-18T21:43:49.883Z,16
2016-07-18T21:47:03.690Z,16
2016-07-18T21:50:15.219Z,16
2016-07-18T21:53:28.689Z,16
2016-07-18T21:56:42.052Z,16
2016-07-18T22:00:00.491Z,15.9
2016-07-18T22:03:04.256Z,15.9
2016-07-18T22:06:17.725Z,15.9
2016-07-18T22:09:31.037Z,15.9
2016-07-18T22:12:42.616Z,15.9
2016-07-18T22:16:01.054Z,15.9
2016-07-18T22:19:04.760Z,15.9
2016-07-18T22:22:18.231Z,15.8
2016-07-18T22:25:31.663Z,15.8
2016-07-18T22:28:45.338Z,15.8
2016-07-18T22:32:03.900Z,15.8
2016-07-18T22:35:07.741Z,15.8
2016-07-18T22:38:19.220Z,15.8
2016-07-18T22:41:35.401Z,15.8
2016-07-18T22:44:47.666Z,15.8
2016-07-18T22:48:06.306Z,15.8
2016-07-18T22:51:10.192Z,15.7
2016-07-18T22:54:23.684Z,15.7
2016-07-18T22:57:37.320Z,15.8
2016-07-18T23:00:50.696Z,15.8
2016-07-18T23:04:09.213Z,15.8
2016-07-18T23:07:13.032Z,15.7
2016-07-18T23:10:26.669Z,15.8
2016-07-18T23:13:40.274Z,15.8
2016-07-18T23:16:57.972Z,15.7
2016-07-18T23:20:07.120Z,15.7
2016-07-18T23:23:20.796Z,15.6
2016-07-18T23:26:34.421Z,15.6
2016-07-18T23:29:47.869Z,15.6
2016-07-18T23:33:06.532Z,15.5
2016-07-18T23:36:10.389Z,15.5
2016-07-18T23:39:24.023Z,15.5
2016-07-18T23:42:37.505Z,15.5
2016-07-18T23:45:50.907Z,15.4
2016-07-18T23:49:09.379Z,15.4
2016-07-18T23:52:13.249Z,15.4
2016-07-18T23:55:26.842Z,15.4
2016-07-18T23:58:40.584Z,15.4
